createdAt,value
2023-01-11T00:01:28.335Z,0.22
2023-01-11T00:03:59.479Z,0.93
2023-01-11T00:06:32.929Z,0.55
2023-01-11T00:09:01.501Z,1.70
2023-01-11T00:11:30.217Z,0.30
2023-01-11T00:14:00.367Z,0.47
2023-01-11T00:16:28.235Z,0.43
2023-01-11T00:18:57.075Z,0.63
2023-01-11T00:21:27.857Z,0.70
2023-01-11T00:23:58.717Z,0.98
2023-01-11T00:26:29.155Z,2.08
2023-01-11T00:28:57.800Z,2.47
2023-01-11T00:31:28.845Z,1.35
2023-01-11T00:34:01.386Z,1.92
2023-01-11T00:36:38.605Z,2.90
2023-01-11T00:39:07.462Z,3.80
2023-01-11T00:41:55.456Z,5.57
2023-01-11T00:44:43.089Z,5.82
2023-01-11T00:47:34.852Z,6.07
2023-01-11T00:50:03.847Z,3.53
2023-01-11T00:52:35.617Z,4.20
2023-01-11T00:55:07.099Z,1.95
2023-01-11T00:57:41.243Z,1.40
2023-01-11T01:00:15.460Z,0.77
2023-01-11T01:02:46.810Z,2.42
2023-01-11T01:05:15.238Z,3.92
2023-01-11T01:07:48.056Z,2.10
2023-01-11T01:10:17.086Z,1.02
2023-01-11T01:13:04.953Z,1.20
2023-01-11T01:15:33.978Z,0.88
2023-01-11T01:18:06.418Z,0.82
2023-01-11T01:20:37.588Z,1.77
2023-01-11T01:23:08.751Z,1.90
2023-01-11T01:25:43.018Z,1.80
2023-01-11T01:28:17.859Z,1.83
2023-01-11T01:30:52.779Z,1.15
2023-01-11T01:33:21.700Z,1.38
2023-01-11T01:35:53.084Z,1.30
2023-01-11T01:38:21.221Z,2.08
2023-01-11T01:40:54.084Z,2.85
2023-01-11T01:43:47.473Z,2.88
2023-01-11T01:46:19.057Z,3.05
2023-01-11T01:48:51.525Z,1.30
2023-01-11T01:51:23.668Z,1.83
2023-01-11T01:53:53.851Z,1.02
2023-01-11T01:56:26.825Z,1.10
2023-01-11T01:58:58.999Z,0.80
2023-01-11T02:01:48.909Z,1.10
2023-01-11T02:04:23.119Z,0.80
2023-01-11T02:07:03.020Z,1.23
2023-01-11T02:12:12.057Z,1.33
2023-01-11T02:14:42.147Z,0.50
2023-01-11T02:17:15.432Z,0.50
2023-01-11T02:31:04.416Z,1.00
2023-01-11T02:39:26.137Z,3.72
2023-01-11T02:42:23.145Z,1.83
2023-01-11T02:53:10.054Z,1.25
2023-01-11T02:55:44.440Z,1.02
2023-01-11T03:00:41.710Z,0.93
2023-01-11T03:05:58.102Z,1.63
2023-01-11T03:08:35.503Z,1.17
2023-01-11T03:11:09.066Z,2.30
2023-01-11T03:13:51.297Z,0.77
2023-01-11T03:16:29.577Z,1.40
2023-01-11T03:27:33.075Z,1.52
2023-01-11T03:32:48.303Z,0.77
2023-01-11T03:35:24.884Z,1.17
2023-01-11T03:37:56.623Z,1.23
2023-01-11T03:40:30.341Z,0.50
2023-01-11T03:43:12.822Z,0.73
2023-01-11T03:48:25.140Z,0.65
2023-01-11T03:50:56.809Z,0.25
2023-01-11T03:53:28.585Z,1.15
2023-01-11T03:56:02.302Z,0.38
2023-01-11T03:58:30.758Z,1.15
2023-01-11T04:01:04.901Z,1.55
2023-01-11T04:03:32.879Z,0.93
2023-01-11T04:06:02.450Z,0.65
2023-01-11T04:08:32.432Z,1.33
2023-01-11T04:11:00.877Z,1.25
2023-01-11T04:13:36.277Z,1.40
2023-01-11T04:16:04.375Z,1.13
2023-01-11T04:18:32.657Z,0.73
2023-01-11T04:21:00.856Z,1.25
2023-01-11T04:23:32.002Z,0.60
2023-01-11T04:26:04.157Z,0.60
2023-01-11T04:28:32.085Z,0.93
2023-01-11T04:31:07.507Z,0.82
2023-01-11T04:33:37.600Z,0.63
2023-01-11T04:36:10.475Z,1.38
2023-01-11T04:38:39.639Z,0.63
2023-01-11T04:41:27.857Z,0.95
2023-01-11T04:43:57.198Z,0.70
2023-01-11T04:46:27.361Z,0.90
2023-01-11T04:48:59.376Z,0.70
2023-01-11T04:51:28.063Z,0.75
2023-01-11T04:53:58.960Z,0.85
2023-01-11T04:56:29.956Z,0.40
2023-01-11T04:59:01.008Z,0.47
2023-01-11T05:01:30.096Z,0.88
2023-01-11T05:04:00.275Z,0.70
2023-01-11T05:06:30.484Z,0.68
2023-01-11T05:08:58.501Z,0.80
2023-01-11T05:11:31.577Z,1.13
2023-01-11T05:16:33.840Z,0.35
2023-01-11T05:19:05.278Z,0.20
2023-01-11T05:21:34.831Z,0.73
2023-01-11T05:24:06.168Z,0.60
2023-01-11T05:26:36.357Z,1.05
2023-01-11T05:29:06.039Z,0.20
2023-01-11T05:31:42.034Z,0.50
2023-01-11T05:34:13.954Z,1.48
2023-01-11T05:36:54.293Z,0.63
2023-01-11T05:39:26.054Z,1.15
2023-01-11T05:41:56.360Z,0.47
2023-01-11T05:44:44.121Z,0.82
2023-01-11T05:47:12.536Z,1.42
2023-01-11T05:49:40.777Z,1.25
2023-01-11T05:52:08.988Z,0.50
2023-01-11T05:54:42.384Z,0.70
2023-01-11T05:57:15.222Z,1.00
2023-01-11T05:59:46.515Z,0.47
2023-01-11T06:02:15.246Z,0.93
2023-01-11T06:04:48.754Z,0.60
2023-01-11T06:07:16.563Z,0.40
2023-01-11T06:09:47.255Z,0.28
2023-01-11T06:12:15.202Z,0.60
2023-01-11T06:14:45.719Z,0.68
2023-01-11T06:17:13.657Z,0.30
2023-01-11T06:19:45.377Z,0.52
2023-01-11T06:22:16.465Z,0.90
2023-01-11T06:24:44.711Z,1.00
2023-01-11T06:27:13.963Z,0.15
2023-01-11T06:29:43.096Z,0.40
2023-01-11T06:32:11.292Z,1.48
2023-01-11T06:34:42.160Z,0.57
2023-01-11T06:37:10.527Z,0.93
2023-01-11T06:39:38.897Z,0.80
2023-01-11T06:42:07.390Z,1.73
2023-01-11T06:44:37.694Z,0.70
2023-01-11T06:47:06.319Z,0.75
2023-01-11T06:49:36.845Z,0.22
2023-01-11T06:52:05.258Z,0.30
2023-01-11T06:54:36.010Z,0.63
2023-01-11T06:57:04.650Z,0.57
2023-01-11T06:59:32.390Z,1.23
2023-01-11T07:02:00.856Z,0.25
2023-01-11T07:04:30.031Z,1.50
2023-01-11T07:06:58.440Z,0.40
2023-01-11T07:09:28.337Z,0.88
2023-01-11T07:11:56.306Z,0.70
2023-01-11T07:14:26.658Z,0.60
2023-01-11T07:16:57.220Z,0.40
2023-01-11T07:19:25.136Z,0.75
2023-01-11T07:21:53.132Z,1.23
2023-01-11T07:24:25.082Z,0.47
2023-01-11T07:26:54.172Z,0.55
2023-01-11T07:29:22.458Z,0.60
2023-01-11T07:31:50.435Z,0.45
2023-01-11T07:34:27.076Z,1.42
2023-01-11T07:36:55.080Z,0.77
2023-01-11T07:39:29.042Z,1.38
2023-01-11T07:42:23.557Z,1.60
2023-01-11T07:44:51.866Z,1.08
2023-01-11T07:47:19.996Z,0.70
2023-01-11T07:49:48.160Z,0.38
2023-01-11T07:52:16.155Z,0.32
2023-01-11T07:54:47.025Z,0.30
2023-01-11T07:57:15.119Z,0.77
2023-01-11T07:59:43.419Z,0.68
2023-01-11T08:02:11.745Z,1.08
2023-01-11T08:04:39.565Z,0.82
2023-01-11T08:07:07.940Z,0.68
2023-01-11T08:09:36.168Z,0.88
2023-01-11T08:12:24.172Z,0.35
2023-01-11T08:14:52.307Z,0.68
2023-01-11T08:17:20.918Z,0.32
2023-01-11T08:19:50.934Z,0.73
2023-01-11T08:24:52.686Z,0.30
2023-01-11T08:27:20.984Z,0.57
2023-01-11T08:29:51.858Z,0.52
2023-01-11T08:32:31.123Z,0.38
2023-01-11T08:34:59.716Z,0.30
2023-01-11T08:37:28.798Z,0.77
2023-01-11T08:39:57.471Z,0.80
2023-01-11T08:42:25.818Z,0.52
2023-01-11T08:44:53.652Z,0.35
2023-01-11T08:47:23.398Z,0.73
2023-01-11T08:49:54.280Z,0.35
2023-01-11T08:52:22.664Z,0.30
2023-01-11T08:54:50.524Z,0.93
2023-01-11T08:57:18.737Z,1.23
2023-01-11T08:59:47.299Z,0.60
2023-01-11T09:02:15.763Z,0.75
2023-01-11T09:04:46.869Z,0.85
2023-01-11T09:07:17.760Z,1.33
2023-01-11T09:09:48.274Z,0.65
2023-01-11T09:12:18.661Z,0.98
2023-01-11T09:14:46.594Z,1.52
2023-01-11T09:17:18.575Z,0.88
2023-01-11T09:19:54.757Z,1.55
2023-01-11T09:22:23.007Z,3.67
2023-01-11T09:24:53.504Z,1.05
2023-01-11T09:27:21.733Z,1.02
2023-01-11T09:29:53.878Z,1.05
2023-01-11T09:32:29.553Z,0.70
2023-01-11T09:35:02.187Z,0.55
2023-01-11T09:37:34.021Z,1.00
2023-01-11T09:40:06.732Z,0.80
2023-01-11T09:42:38.795Z,0.60
2023-01-11T09:47:54.466Z,0.43
2023-01-11T09:50:28.131Z,0.60
2023-01-11T09:53:05.534Z,0.90
2023-01-11T09:55:35.737Z,0.73
2023-01-11T09:58:08.913Z,0.60
2023-01-11T10:06:14.491Z,0.82
2023-01-11T10:18:28.618Z,1.65
2023-01-11T10:20:36.404Z,0.70
2023-01-11T10:23:07.193Z,1.20
2023-01-11T10:25:50.378Z,0.47
2023-01-11T10:28:31.699Z,0.30
2023-01-11T10:31:25.632Z,0.70
2023-01-11T10:34:17.959Z,0.60
2023-01-11T10:37:25.845Z,0.30
2023-01-11T10:42:38.223Z,0.47
2023-01-11T10:45:13.670Z,1.00
2023-01-11T10:47:47.316Z,0.38
2023-01-11T10:50:20.665Z,0.55
2023-01-11T10:53:13.755Z,0.80
2023-01-11T10:55:53.336Z,0.70
2023-01-11T11:01:29.775Z,0.77
2023-01-11T11:04:22.337Z,0.50
2023-01-11T11:09:55.001Z,0.50
2023-01-11T11:12:32.628Z,0.50
2023-01-11T11:17:50.597Z,1.20
2023-01-11T11:20:23.305Z,0.47
2023-01-11T11:22:57.279Z,0.47
2023-01-11T11:25:38.845Z,0.98
2023-01-11T11:30:49.393Z,0.63
2023-01-11T11:33:21.706Z,0.45
2023-01-11T11:41:18.392Z,0.98
2023-01-11T11:43:50.031Z,0.60
2023-01-11T11:46:29.659Z,0.10
2023-01-11T11:49:20.596Z,1.58
2023-01-11T11:54:20.782Z,0.30
2023-01-11T11:56:50.568Z,0.70
2023-01-11T11:59:21.345Z,0.55
2023-01-11T12:01:55.389Z,0.75
2023-01-11T12:04:25.408Z,0.20
2023-01-11T12:07:16.062Z,0.73
2023-01-11T12:09:49.852Z,0.20
2023-01-11T12:12:23.514Z,2.22
2023-01-11T12:15:13.894Z,2.33
2023-01-11T12:17:42.577Z,0.60
2023-01-11T12:20:30.375Z,0.82
2023-01-11T12:26:15.847Z,0.60
2023-01-11T12:40:08.511Z,1.80
2023-01-11T12:42:59.205Z,1.45
2023-01-11T12:48:25.959Z,0.85
2023-01-11T12:51:19.756Z,0.93
2023-01-11T12:59:26.831Z,0.68
2023-01-11T13:02:14.710Z,0.63
2023-01-11T13:05:04.506Z,0.85
2023-01-11T13:07:38.205Z,0.60
2023-01-11T13:13:28.689Z,0.77
2023-01-11T13:16:18.227Z,0.55
2023-01-11T13:18:52.689Z,0.50
2023-01-11T13:21:46.192Z,0.52
2023-01-11T13:24:17.183Z,0.52
2023-01-11T13:26:49.125Z,0.52
2023-01-11T13:29:24.592Z,1.60
2023-01-11T13:31:53.282Z,0.35
2023-01-11T13:42:56.655Z,0.75
2023-01-11T13:45:38.680Z,0.38
2023-01-11T13:48:30.201Z,0.90
2023-01-11T13:51:10.587Z,0.52
2023-01-11T13:53:44.435Z,0.60
2023-01-11T13:56:25.106Z,0.60
2023-01-11T13:58:56.348Z,0.60
2023-01-11T14:01:32.627Z,1.00
2023-01-11T14:07:20.848Z,0.75
2023-01-11T14:10:04.347Z,0.47
2023-01-11T14:15:23.047Z,0.80
2023-01-11T14:20:37.916Z,0.80
2023-01-11T14:23:13.795Z,0.88
2023-01-11T14:25:55.464Z,0.60
2023-01-11T14:28:44.549Z,0.60
2023-01-11T14:36:55.335Z,0.73
2023-01-11T14:42:29.347Z,0.77
2023-01-11T14:45:09.179Z,0.85
2023-01-11T14:50:23.301Z,0.55
2023-01-11T14:52:54.242Z,0.20
2023-01-11T14:55:29.868Z,0.70
2023-01-11T15:06:01.183Z,0.95
2023-01-11T15:08:41.840Z,0.85
2023-01-11T15:11:32.665Z,0.75
2023-01-11T15:14:10.503Z,0.73
2023-01-11T15:17:08.313Z,0.60
2023-01-11T15:19:45.327Z,0.55
2023-01-11T15:22:31.760Z,0.80
2023-01-11T15:25:38.829Z,1.30
2023-01-11T15:28:32.448Z,0.98
2023-01-11T15:31:34.482Z,0.43
2023-01-11T15:34:28.831Z,0.45
2023-01-11T15:37:23.187Z,0.73
2023-01-11T15:40:14.148Z,0.57
2023-01-11T15:46:13.317Z,2.47
2023-01-11T15:48:53.949Z,1.35
2023-01-11T15:51:32.165Z,0.95
2023-01-11T15:54:14.622Z,1.33
2023-01-11T16:02:24.171Z,0.70
2023-01-11T16:05:00.530Z,0.73
2023-01-11T16:07:47.126Z,0.60
2023-01-11T16:10:40.875Z,1.25
2023-01-11T16:18:44.683Z,0.40
2023-01-11T16:21:18.707Z,0.95
2023-01-11T16:23:49.879Z,1.45
2023-01-11T16:26:26.343Z,0.82
2023-01-11T16:29:06.089Z,0.50
2023-01-11T16:31:53.802Z,1.38
2023-01-11T16:34:24.948Z,2.28
2023-01-11T16:36:56.227Z,1.70
2023-01-11T16:39:28.410Z,2.30
2023-01-11T16:47:22.311Z,1.90
2023-01-11T16:50:18.434Z,1.65
2023-01-11T16:52:48.342Z,1.05
2023-01-11T16:55:21.325Z,0.73
2023-01-11T16:57:57.529Z,1.08
2023-01-11T17:00:39.144Z,0.43
2023-01-11T17:03:20.074Z,0.90
2023-01-11T17:06:09.917Z,1.10
2023-01-11T17:08:44.050Z,0.68
2023-01-11T17:14:38.126Z,1.23
2023-01-11T17:17:12.916Z,1.00
2023-01-11T17:19:46.055Z,1.45
2023-01-11T17:22:17.753Z,1.25
2023-01-11T17:24:50.499Z,1.20
2023-01-11T17:27:29.171Z,0.68
2023-01-11T17:30:05.852Z,0.57
2023-01-11T17:32:40.154Z,0.95
2023-01-11T17:35:18.265Z,0.80
2023-01-11T17:37:52.688Z,0.90
2023-01-11T17:40:30.716Z,1.00
2023-01-11T17:43:25.104Z,1.10
2023-01-11T17:45:58.729Z,1.42
2023-01-11T17:48:30.334Z,1.20
2023-01-11T17:51:06.408Z,1.38
2023-01-11T17:53:45.186Z,0.65
2023-01-11T17:56:35.604Z,1.13
2023-01-11T18:02:05.561Z,1.13
2023-01-11T18:04:35.142Z,1.90
2023-01-11T18:07:11.346Z,1.27
2023-01-11T18:09:44.944Z,1.60
2023-01-11T18:12:21.675Z,2.50
2023-01-11T18:15:01.923Z,2.42
2023-01-11T18:23:05.315Z,3.33
2023-01-11T18:25:36.031Z,5.60
2023-01-11T18:31:06.511Z,7.30
2023-01-11T18:33:41.472Z,7.15
2023-01-11T18:36:22.012Z,5.97
2023-01-11T18:38:50.894Z,5.07
2023-01-11T18:41:39.064Z,4.90
2023-01-11T18:44:07.283Z,1.80
2023-01-11T18:50:16.251Z,3.17
2023-01-11T18:52:47.290Z,1.23
2023-01-11T18:55:17.658Z,1.55
2023-01-11T19:01:28.362Z,2.08
2023-01-11T19:04:00.421Z,2.78
2023-01-11T19:06:29.902Z,1.40
2023-01-11T19:08:58.011Z,1.50
2023-01-11T19:18:17.296Z,2.08
2023-01-11T19:20:47.598Z,3.75
2023-01-11T19:23:25.192Z,5.57
2023-01-11T19:26:06.675Z,4.32
2023-01-11T19:28:41.555Z,2.88
2023-01-11T19:31:15.049Z,2.92
2023-01-11T19:33:45.294Z,2.75
2023-01-11T19:43:27.729Z,1.48
2023-01-11T19:45:59.070Z,1.35
2023-01-11T19:48:35.441Z,1.70
2023-01-11T19:51:16.092Z,0.90
2023-01-11T19:54:16.921Z,1.00
2023-01-11T19:56:47.351Z,1.90
2023-01-11T20:01:50.702Z,0.28
2023-01-11T20:07:37.854Z,1.10
2023-01-11T20:10:15.202Z,1.20
2023-01-11T20:18:53.353Z,0.95
2023-01-11T20:21:21.990Z,1.58
2023-01-11T20:23:49.995Z,1.33
2023-01-11T20:26:20.787Z,1.30
2023-01-11T20:28:55.468Z,1.50
2023-01-11T20:37:38.006Z,1.75
2023-01-11T20:40:06.001Z,1.13
2023-01-11T20:42:37.938Z,1.20
2023-01-11T20:45:09.560Z,1.30
2023-01-11T20:47:38.524Z,1.35
2023-01-11T20:50:06.543Z,1.10
2023-01-11T21:04:57.639Z,0.93
2023-01-11T21:10:38.613Z,1.20
2023-01-11T21:16:19.904Z,1.13
2023-01-11T21:18:47.610Z,1.02
2023-01-11T21:21:56.350Z,1.00
2023-01-11T21:24:25.559Z,0.73
2023-01-11T21:26:57.151Z,0.60
2023-01-11T21:32:57.685Z,1.15
2023-01-11T21:35:25.486Z,0.60
2023-01-11T21:37:53.209Z,0.73
2023-01-11T21:40:26.371Z,0.80
2023-01-11T21:42:53.944Z,0.63
2023-01-11T21:45:21.681Z,1.27
2023-01-11T21:48:09.735Z,0.95
2023-01-11T21:54:10.643Z,0.70
2023-01-11T21:56:42.572Z,0.63
2023-01-11T21:59:10.650Z,0.80
2023-01-11T22:01:39.368Z,1.42
2023-01-11T22:07:42.064Z,1.23
2023-01-11T22:16:41.032Z,1.50
2023-01-11T22:19:10.335Z,0.90
2023-01-11T22:21:38.414Z,1.65
2023-01-11T22:30:14.781Z,0.50
2023-01-11T22:33:02.578Z,0.52
2023-01-11T22:39:04.427Z,0.80
2023-01-11T22:41:54.159Z,1.20
2023-01-11T22:44:22.442Z,0.80
2023-01-11T22:46:50.178Z,0.77
2023-01-11T22:49:21.242Z,0.90
2023-01-11T22:51:49.159Z,0.85
2023-01-11T23:06:42.637Z,1.05
2023-01-11T23:09:15.565Z,1.00
2023-01-11T23:15:15.957Z,0.98
2023-01-11T23:17:47.517Z,0.93
2023-01-11T23:20:15.894Z,0.93
2023-01-11T23:22:43.841Z,0.82
2023-01-11T23:25:11.776Z,1.40
2023-01-11T23:27:43.345Z,1.00
2023-01-11T23:36:22.573Z,1.15
2023-01-11T23:38:53.385Z,1.20
2023-01-11T23:44:55.942Z,0.90
2023-01-11T23:47:25.943Z,1.00
2023-01-11T23:49:55.784Z,1.33
2023-01-11T23:52:25.143Z,0.95
2023-01-11T23:54:53.134Z,0.65
2023-01-11T23:57:24.911Z,0.88
2023-01-11T23:59:52.798Z,0.98
